createdAt,value
2023-12-30T00:02:19.859Z,89.70
2023-12-30T00:04:46.723Z,123.90
2023-12-30T00:07:13.854Z,141.10
2023-12-30T00:09:41.500Z,121.30
2023-12-30T00:12:08.658Z,123.60
2023-12-30T00:14:35.301Z,118.40
2023-12-30T00:17:02.050Z,148.40
2023-12-30T00:19:29.454Z,144.90
2023-12-30T00:21:56.594Z,122.10
2023-12-30T00:24:23.439Z,131.40
2023-12-30T00:26:51.465Z,134.10
2023-12-30T00:29:18.237Z,131.80
2023-12-30T00:31:45.000Z,141.70
2023-12-30T00:34:12.219Z,192.00
2023-12-30T00:36:43.519Z,169.30
2023-12-30T00:41:37.720Z,131.10
2023-12-30T00:44:04.699Z,134.70
2023-12-30T00:46:31.435Z,125.20
2023-12-30T00:48:58.781Z,122.20
2023-12-30T00:51:26.319Z,116.50
2023-12-30T00:53:53.197Z,108.10
2023-12-30T00:56:20.321Z,104.30
2023-12-30T00:58:47.305Z,119.80
2023-12-30T01:01:14.914Z,117.80
2023-12-30T01:03:42.218Z,159.40
2023-12-30T01:06:09.536Z,138.50
2023-12-30T01:08:36.636Z,80.20
2023-12-30T01:11:03.614Z,78.20
2023-12-30T01:13:30.421Z,88.20
2023-12-30T01:15:57.243Z,96.40
2023-12-30T01:18:24.047Z,104.00
2023-12-30T01:20:51.114Z,86.80
2023-12-30T01:23:17.863Z,73.30
2023-12-30T01:25:44.915Z,68.90
2023-12-30T01:28:11.820Z,66.60
2023-12-30T01:30:38.929Z,66.60
2023-12-30T01:33:06.795Z,82.00
2023-12-30T01:35:34.564Z,80.50
2023-12-30T01:38:03.410Z,80.70
2023-12-30T01:40:32.095Z,82.20
2023-12-30T01:42:59.415Z,68.70
2023-12-30T01:45:26.493Z,64.90
2023-12-30T01:47:53.813Z,66.50
2023-12-30T01:50:22.183Z,62.80
2023-12-30T01:52:49.902Z,78.80
2023-12-30T01:55:18.794Z,90.40
2023-12-30T01:57:45.855Z,65.80
2023-12-30T02:00:20.557Z,66.50
2023-12-30T02:02:48.721Z,85.50
2023-12-30T02:05:16.943Z,73.90
2023-12-30T02:07:46.706Z,75.40
2023-12-30T02:10:14.287Z,80.70
2023-12-30T02:12:41.744Z,77.60
2023-12-30T02:15:26.887Z,66.80
2023-12-30T02:17:55.340Z,64.80
2023-12-30T02:20:22.436Z,62.80
2023-12-30T02:22:49.381Z,62.70
2023-12-30T02:25:24.585Z,64.30
2023-12-30T02:28:09.523Z,61.30
2023-12-30T02:30:36.324Z,63.50
2023-12-30T02:33:03.649Z,100.30
2023-12-30T02:35:30.667Z,85.80
2023-12-30T02:37:58.033Z,82.20
2023-12-30T02:40:24.895Z,80.80
2023-12-30T02:42:51.683Z,96.70
2023-12-30T02:45:18.934Z,92.20
2023-12-30T02:47:45.752Z,94.20
2023-12-30T02:50:12.788Z,157.90
2023-12-30T02:52:41.731Z,109.90
2023-12-30T02:55:08.896Z,98.00
2023-12-30T02:57:48.263Z,97.80
2023-12-30T03:00:18.350Z,93.90
2023-12-30T03:02:45.484Z,70.20
2023-12-30T03:05:12.732Z,78.90
2023-12-30T03:07:40.566Z,86.40
2023-12-30T03:10:08.360Z,80.80
2023-12-30T03:12:35.345Z,79.10
2023-12-30T03:15:02.506Z,80.70
2023-12-30T03:17:29.302Z,66.70
2023-12-30T03:19:56.527Z,75.60
2023-12-30T03:22:23.483Z,90.50
2023-12-30T03:24:50.422Z,89.00
2023-12-30T03:27:17.374Z,80.50
2023-12-30T03:29:45.543Z,87.60
2023-12-30T03:32:12.505Z,79.60
2023-12-30T03:34:40.770Z,85.40
2023-12-30T03:37:07.691Z,81.70
2023-12-30T03:39:34.617Z,82.90
2023-12-30T03:42:01.460Z,85.10
2023-12-30T03:44:28.307Z,85.00
2023-12-30T03:46:55.286Z,84.90
2023-12-30T03:49:22.242Z,124.90
2023-12-30T03:51:49.122Z,77.20
2023-12-30T03:54:16.187Z,71.00
2023-12-30T03:56:43.085Z,65.20
2023-12-30T03:59:10.088Z,81.40
2023-12-30T04:01:37.025Z,91.50
2023-12-30T04:04:04.298Z,81.80
2023-12-30T04:06:31.302Z,63.70
2023-12-30T04:08:58.367Z,68.20
2023-12-30T04:11:25.222Z,79.30
2023-12-30T04:13:52.060Z,80.70
2023-12-30T04:16:18.816Z,80.70
2023-12-30T04:18:45.957Z,66.90
2023-12-30T04:21:13.022Z,88.30
2023-12-30T04:23:39.768Z,141.00
2023-12-30T04:26:06.724Z,147.80
2023-12-30T04:28:33.496Z,101.30
2023-12-30T04:31:00.652Z,85.20
2023-12-30T04:33:27.624Z,80.80
2023-12-30T04:35:54.427Z,73.00
2023-12-30T04:38:21.314Z,76.30
2023-12-30T04:40:48.282Z,68.80
2023-12-30T04:43:15.332Z,68.60
2023-12-30T04:45:42.327Z,71.60
2023-12-30T04:48:09.467Z,76.70
2023-12-30T04:50:36.549Z,76.70
2023-12-30T04:55:59.904Z,65.50
2023-12-30T04:58:27.860Z,82.70
2023-12-30T05:00:54.692Z,74.30
2023-12-30T05:03:22.002Z,77.90
2023-12-30T05:05:48.834Z,81.50
2023-12-30T05:08:15.892Z,64.00
2023-12-30T05:10:42.686Z,81.40
2023-12-30T05:13:10.209Z,62.70
2023-12-30T05:15:37.275Z,72.50
2023-12-30T05:18:04.820Z,67.20
2023-12-30T05:20:31.893Z,67.70
2023-12-30T05:23:02.078Z,60.10
2023-12-30T05:25:29.849Z,59.60
2023-12-30T05:27:56.787Z,61.40
2023-12-30T05:30:23.844Z,83.80
2023-12-30T05:32:50.701Z,68.90
2023-12-30T05:35:17.725Z,69.30
2023-12-30T05:37:44.890Z,79.20
2023-12-30T05:40:12.348Z,99.80
2023-12-30T05:42:39.295Z,89.30
2023-12-30T05:45:06.820Z,88.90
2023-12-30T05:47:33.517Z,77.50
2023-12-30T05:50:00.622Z,56.10
2023-12-30T05:52:27.600Z,66.90
2023-12-30T05:54:54.478Z,81.90
2023-12-30T05:57:21.342Z,66.30
2023-12-30T05:59:48.010Z,67.50
2023-12-30T06:02:15.046Z,61.50
2023-12-30T06:04:42.182Z,65.70
2023-12-30T06:07:09.917Z,60.70
2023-12-30T06:09:36.701Z,63.40
2023-12-30T06:12:04.034Z,78.00
2023-12-30T06:14:30.843Z,80.20
2023-12-30T06:16:57.601Z,75.70
2023-12-30T06:19:24.585Z,88.20
2023-12-30T06:21:51.536Z,79.40
2023-12-30T06:24:18.254Z,73.40
2023-12-30T06:26:45.215Z,77.50
2023-12-30T06:29:12.024Z,176.00
2023-12-30T06:31:42.702Z,162.40
2023-12-30T06:34:10.302Z,126.40
2023-12-30T06:36:37.744Z,113.20
2023-12-30T06:39:05.512Z,88.00
2023-12-30T06:41:32.456Z,67.20
2023-12-30T06:43:59.616Z,69.40
2023-12-30T06:46:26.307Z,80.20
2023-12-30T06:48:53.193Z,68.50
2023-12-30T06:51:20.269Z,79.60
2023-12-30T06:53:46.972Z,66.70
2023-12-30T06:56:14.224Z,69.40
2023-12-30T06:58:41.039Z,69.80
2023-12-30T07:01:07.969Z,67.10
2023-12-30T07:03:34.867Z,70.10
2023-12-30T07:06:01.664Z,88.70
2023-12-30T07:08:28.377Z,71.40
2023-12-30T07:10:54.993Z,72.00
2023-12-30T07:13:21.686Z,59.80
2023-12-30T07:15:48.829Z,62.90
2023-12-30T07:18:15.611Z,67.40
2023-12-30T07:20:42.582Z,58.30
2023-12-30T07:23:09.356Z,56.60
2023-12-30T07:25:36.076Z,56.10
2023-12-30T07:28:03.745Z,58.30
2023-12-30T07:30:30.709Z,65.60
2023-12-30T07:32:57.722Z,60.00
2023-12-30T07:35:24.554Z,73.50
2023-12-30T07:37:51.381Z,59.90
2023-12-30T07:40:18.199Z,49.40
2023-12-30T07:42:44.993Z,45.50
2023-12-30T07:45:11.745Z,50.10
2023-12-30T07:47:38.525Z,57.80
2023-12-30T07:50:06.285Z,53.80
2023-12-30T07:52:33.248Z,66.00
2023-12-30T07:55:00.023Z,72.50
2023-12-30T07:57:26.821Z,83.40
2023-12-30T07:59:53.586Z,82.20
2023-12-30T08:02:20.528Z,65.40
2023-12-30T08:04:47.212Z,68.90
2023-12-30T08:07:15.941Z,48.00
2023-12-30T08:09:42.809Z,39.70
2023-12-30T08:12:09.690Z,36.50
2023-12-30T08:14:36.647Z,33.50
2023-12-30T08:17:03.637Z,37.80
2023-12-30T08:19:30.480Z,40.00
2023-12-30T08:21:57.236Z,37.20
2023-12-30T08:24:24.010Z,42.80
2023-12-30T08:26:50.796Z,53.70
2023-12-30T08:29:17.517Z,81.60
2023-12-30T08:31:44.292Z,74.60
2023-12-30T08:34:12.407Z,102.30
2023-12-30T08:36:39.207Z,110.50
2023-12-30T08:39:06.059Z,104.80
2023-12-30T08:41:32.779Z,104.80
2023-12-30T08:43:59.431Z,95.50
2023-12-30T08:46:26.237Z,88.50
2023-12-30T08:48:53.286Z,79.70
2023-12-30T08:51:20.104Z,81.20
2023-12-30T08:53:47.065Z,90.00
2023-12-30T08:56:13.804Z,102.80
2023-12-30T08:58:40.525Z,78.50
2023-12-30T09:01:07.391Z,91.70
2023-12-30T09:03:34.462Z,65.40
2023-12-30T09:06:01.375Z,92.50
2023-12-30T09:08:28.391Z,81.80
2023-12-30T09:10:55.548Z,73.70
2023-12-30T09:13:22.234Z,98.30
2023-12-30T09:15:49.006Z,79.90
2023-12-30T09:18:15.945Z,61.10
2023-12-30T09:20:43.840Z,42.90
2023-12-30T09:23:10.514Z,31.00
2023-12-30T09:25:37.522Z,21.00
2023-12-30T09:28:04.971Z,14.90
2023-12-30T09:30:31.682Z,13.80
2023-12-30T09:32:58.483Z,13.50
2023-12-30T09:35:25.368Z,9.30
2023-12-30T09:37:52.304Z,8.40
2023-12-30T09:40:19.451Z,9.10
2023-12-30T09:42:48.837Z,10.00
2023-12-30T09:45:16.733Z,10.70
2023-12-30T09:47:46.170Z,13.20
2023-12-30T09:50:12.998Z,9.30
2023-12-30T09:52:39.711Z,10.30
2023-12-30T09:55:06.658Z,10.50
2023-12-30T09:57:33.646Z,9.10
2023-12-30T10:00:01.236Z,8.90
2023-12-30T10:02:28.922Z,6.80
2023-12-30T10:04:57.221Z,5.00
2023-12-30T10:07:24.142Z,6.30
2023-12-30T10:09:50.903Z,7.20
2023-12-30T10:12:17.707Z,6.20
2023-12-30T10:14:44.421Z,6.10
2023-12-30T10:17:11.130Z,9.10
2023-12-30T10:19:38.046Z,7.80
2023-12-30T10:22:05.176Z,6.60
2023-12-30T10:24:31.992Z,7.80
2023-12-30T10:26:58.636Z,9.50
2023-12-30T10:29:25.487Z,7.20
2023-12-30T10:32:02.157Z,7.10
2023-12-30T10:34:28.824Z,7.70
2023-12-30T10:36:56.758Z,9.60
2023-12-30T10:39:24.149Z,5.90
2023-12-30T10:41:51.016Z,6.50
2023-12-30T10:44:18.976Z,9.40
2023-12-30T10:46:49.353Z,10.30
2023-12-30T10:51:44.673Z,8.90
2023-12-30T10:54:18.201Z,7.00
2023-12-30T10:56:48.770Z,6.20
2023-12-30T10:59:17.704Z,8.00
2023-12-30T11:01:44.680Z,7.70
2023-12-30T11:04:12.875Z,7.40
2023-12-30T11:06:49.781Z,7.00
2023-12-30T11:09:16.695Z,9.50
2023-12-30T11:11:50.723Z,7.30
2023-12-30T11:14:17.768Z,7.60
2023-12-30T11:16:45.900Z,9.50
2023-12-30T11:19:29.477Z,8.00
2023-12-30T11:21:59.639Z,6.50
2023-12-30T11:24:28.201Z,5.90
2023-12-30T11:26:56.183Z,6.10
2023-12-30T11:29:28.187Z,5.60
2023-12-30T11:31:57.245Z,6.30
2023-12-30T11:34:24.833Z,9.30
2023-12-30T11:36:53.781Z,7.90
2023-12-30T11:39:27.239Z,8.40
2023-12-30T11:41:54.152Z,10.80
2023-12-30T11:44:21.855Z,8.40
2023-12-30T11:46:49.006Z,8.40
2023-12-30T11:49:20.377Z,11.20
2023-12-30T11:51:47.231Z,7.00
2023-12-30T11:54:14.300Z,6.80
2023-12-30T11:56:41.553Z,8.80
2023-12-30T11:59:08.914Z,10.00
2023-12-30T12:01:36.063Z,7.90
2023-12-30T12:04:03.096Z,9.70
2023-12-30T12:06:30.620Z,9.10
2023-12-30T12:08:57.359Z,7.00
2023-12-30T12:11:24.181Z,5.50
2023-12-30T12:13:57.283Z,4.90
2023-12-30T12:16:24.084Z,6.50
2023-12-30T12:18:50.957Z,5.00
2023-12-30T12:21:17.939Z,4.10
2023-12-30T12:23:44.785Z,5.30
2023-12-30T12:26:11.560Z,6.40
2023-12-30T12:28:38.579Z,11.20
2023-12-30T12:31:08.407Z,4.80
2023-12-30T12:33:36.528Z,5.20
2023-12-30T12:36:04.465Z,5.10
2023-12-30T12:38:31.340Z,4.60
2023-12-30T12:40:58.282Z,5.10
2023-12-30T12:43:24.968Z,5.40
2023-12-30T12:45:51.878Z,6.30
2023-12-30T12:48:18.826Z,8.50
2023-12-30T12:50:45.916Z,6.50
2023-12-30T12:53:12.624Z,5.50
2023-12-30T12:55:39.414Z,5.40
2023-12-30T12:58:06.051Z,6.80
2023-12-30T13:00:33.198Z,6.90
2023-12-30T13:03:01.841Z,6.70
2023-12-30T13:05:29.268Z,5.60
2023-12-30T13:07:56.005Z,7.00
2023-12-30T13:10:22.837Z,6.60
2023-12-30T13:12:50.641Z,7.90
2023-12-30T13:15:17.476Z,8.10
2023-12-30T13:17:44.152Z,7.60
2023-12-30T13:20:13.540Z,6.60
2023-12-30T13:22:40.569Z,7.80
2023-12-30T13:25:07.961Z,5.20
2023-12-30T13:27:34.858Z,5.00
2023-12-30T13:30:01.548Z,4.90
2023-12-30T13:32:28.383Z,4.60
2023-12-30T13:34:56.152Z,5.80
2023-12-30T13:37:22.939Z,4.50
2023-12-30T13:39:49.872Z,7.30
2023-12-30T13:42:16.613Z,5.30
2023-12-30T13:44:43.819Z,13.10
2023-12-30T13:47:11.144Z,8.40
2023-12-30T13:49:38.521Z,7.00
2023-12-30T13:52:06.068Z,10.40
2023-12-30T13:54:32.935Z,9.10
2023-12-30T13:56:59.649Z,11.30
2023-12-30T13:59:26.431Z,7.00
2023-12-30T14:01:53.193Z,6.50
2023-12-30T14:04:20.175Z,11.50
2023-12-30T14:06:47.280Z,6.20
2023-12-30T14:09:14.079Z,8.70
2023-12-30T14:11:40.888Z,7.80
2023-12-30T14:14:07.754Z,9.30
2023-12-30T14:16:34.730Z,11.80
2023-12-30T14:19:01.703Z,11.00
2023-12-30T14:21:28.602Z,9.20
2023-12-30T14:23:55.251Z,7.70
2023-12-30T14:26:22.500Z,9.20
2023-12-30T14:28:49.455Z,8.10
2023-12-30T14:31:16.218Z,6.30
2023-12-30T14:33:43.293Z,7.50
2023-12-30T14:36:10.512Z,7.90
2023-12-30T14:38:37.979Z,7.10
2023-12-30T14:41:04.626Z,8.80
2023-12-30T14:43:31.320Z,7.30
2023-12-30T14:45:58.173Z,6.90
2023-12-30T14:48:25.119Z,8.10
2023-12-30T14:50:51.844Z,13.00
2023-12-30T14:53:18.569Z,9.60
2023-12-30T14:55:45.356Z,8.90
2023-12-30T14:58:12.730Z,6.20
2023-12-30T15:00:39.356Z,10.60
2023-12-30T15:03:06.611Z,15.20
2023-12-30T15:05:33.783Z,13.30
2023-12-30T15:08:00.535Z,18.10
2023-12-30T15:10:27.902Z,18.10
2023-12-30T15:12:54.715Z,12.60
2023-12-30T15:15:21.800Z,10.30
2023-12-30T15:17:48.720Z,11.20
2023-12-30T15:20:15.782Z,13.40
2023-12-30T15:22:42.858Z,9.60
2023-12-30T15:25:09.810Z,11.60
2023-12-30T15:27:37.146Z,16.70
2023-12-30T15:30:04.563Z,12.70
2023-12-30T15:32:31.482Z,12.30
2023-12-30T15:34:58.403Z,13.00
2023-12-30T15:37:25.679Z,19.50
2023-12-30T15:39:52.423Z,25.40
2023-12-30T15:42:19.169Z,26.80
2023-12-30T15:44:45.826Z,19.90
2023-12-30T15:47:12.706Z,48.60
2023-12-30T15:49:39.506Z,43.80
2023-12-30T15:52:07.702Z,64.10
2023-12-30T15:54:34.661Z,114.50
2023-12-30T15:57:01.300Z,75.10
2023-12-30T15:59:28.792Z,93.20
2023-12-30T16:01:55.568Z,130.20
2023-12-30T16:04:22.363Z,84.90
2023-12-30T16:06:49.428Z,62.80
2023-12-30T16:09:16.165Z,44.00
2023-12-30T16:11:42.814Z,73.20
2023-12-30T16:14:09.630Z,88.30
2023-12-30T16:16:36.679Z,27.90
2023-12-30T16:19:03.530Z,48.00
2023-12-30T16:21:30.369Z,97.00
2023-12-30T16:23:57.059Z,84.80
2023-12-30T16:26:24.120Z,36.10
2023-12-30T16:28:50.764Z,19.30
2023-12-30T16:31:17.538Z,16.50
2023-12-30T16:33:45.520Z,13.50
2023-12-30T16:36:14.586Z,14.90
2023-12-30T16:38:41.305Z,12.50
2023-12-30T16:41:15.393Z,15.40
2023-12-30T16:43:42.038Z,35.00
2023-12-30T16:46:09.046Z,45.50
2023-12-30T16:48:36.496Z,64.50
2023-12-30T16:51:03.971Z,31.70
2023-12-30T16:53:30.620Z,27.00
2023-12-30T16:55:59.865Z,30.00
2023-12-30T16:58:26.735Z,23.60
2023-12-30T17:03:25.016Z,37.00
2023-12-30T17:05:51.743Z,14.30
2023-12-30T17:08:18.388Z,21.50
2023-12-30T17:10:45.291Z,41.30
2023-12-30T17:13:12.147Z,42.70
2023-12-30T17:15:38.935Z,23.40
2023-12-30T17:18:06.030Z,90.80
2023-12-30T17:20:35.258Z,82.90
2023-12-30T17:23:02.384Z,63.40
2023-12-30T17:25:29.335Z,53.90
2023-12-30T17:27:56.161Z,45.00
2023-12-30T17:30:22.932Z,45.80
2023-12-30T17:32:49.703Z,49.30
2023-12-30T17:35:16.622Z,59.50
2023-12-30T17:37:43.281Z,51.90
2023-12-30T17:40:10.883Z,78.70
2023-12-30T17:42:37.667Z,84.10
2023-12-30T17:45:04.972Z,68.90
2023-12-30T17:47:31.796Z,78.90
2023-12-30T17:49:58.532Z,54.70
2023-12-30T17:52:25.286Z,60.60
2023-12-30T17:54:52.122Z,66.70
2023-12-30T17:57:18.782Z,65.40
2023-12-30T17:59:45.513Z,75.10
2023-12-30T18:02:12.190Z,55.00
2023-12-30T18:04:39.052Z,42.70
2023-12-30T18:07:06.070Z,63.00
2023-12-30T18:09:32.712Z,58.80
2023-12-30T18:11:59.355Z,77.50
2023-12-30T18:14:26.459Z,85.50
2023-12-30T18:16:53.161Z,98.00
2023-12-30T18:19:19.907Z,99.80
2023-12-30T18:21:46.877Z,92.30
2023-12-30T18:24:13.746Z,88.90
2023-12-30T18:26:40.877Z,93.60
2023-12-30T18:29:07.665Z,83.10
2023-12-30T18:31:34.376Z,58.70
2023-12-30T18:34:01.259Z,125.30
2023-12-30T18:36:28.279Z,116.70
2023-12-30T18:38:54.945Z,148.60
2023-12-30T18:41:21.687Z,135.40
2023-12-30T18:43:48.460Z,145.30
2023-12-30T18:46:15.592Z,114.70
2023-12-30T18:48:42.461Z,96.60
2023-12-30T18:51:09.824Z,96.00
2023-12-30T18:53:36.536Z,87.70
2023-12-30T18:56:03.405Z,81.50
2023-12-30T18:58:30.898Z,77.10
2023-12-30T19:00:58.783Z,77.10
2023-12-30T19:03:25.528Z,64.00
2023-12-30T19:05:52.403Z,58.60
2023-12-30T19:08:19.191Z,60.50
2023-12-30T19:10:45.973Z,59.10
2023-12-30T19:13:12.822Z,61.00
2023-12-30T19:15:39.543Z,65.50
2023-12-30T19:18:06.781Z,64.60
2023-12-30T19:20:33.652Z,76.10
2023-12-30T19:23:00.552Z,124.20
2023-12-30T19:25:27.801Z,102.70
2023-12-30T19:27:54.527Z,184.40
2023-12-30T19:30:21.281Z,158.00
2023-12-30T19:32:48.110Z,183.50
2023-12-30T19:35:15.373Z,163.20
2023-12-30T19:37:42.730Z,143.20
2023-12-30T19:40:10.749Z,138.10
2023-12-30T19:42:37.467Z,140.50
2023-12-30T19:45:05.038Z,185.10
2023-12-30T19:47:31.698Z,209.70
2023-12-30T19:49:58.408Z,190.00
2023-12-30T19:52:25.122Z,167.10
2023-12-30T19:54:51.914Z,203.20
2023-12-30T19:57:18.572Z,201.70
2023-12-30T19:59:45.333Z,184.50
2023-12-30T20:02:12.282Z,124.60
2023-12-30T20:04:42.275Z,122.00
2023-12-30T20:07:09.269Z,118.70
2023-12-30T20:09:36.510Z,104.90
2023-12-30T20:12:03.697Z,99.70
2023-12-30T20:14:30.413Z,105.70
2023-12-30T20:16:57.262Z,179.50
2023-12-30T20:19:24.194Z,108.30
2023-12-30T20:21:51.190Z,139.60
2023-12-30T20:24:18.011Z,131.30
2023-12-30T20:26:47.626Z,117.80
2023-12-30T20:29:14.791Z,140.90
2023-12-30T20:31:43.456Z,131.90
2023-12-30T20:34:10.479Z,258.00
2023-12-30T20:36:37.698Z,135.40
2023-12-30T20:39:04.436Z,143.00
2023-12-30T20:41:31.081Z,105.10
2023-12-30T20:43:58.463Z,105.10
2023-12-30T20:46:25.235Z,114.80
2023-12-30T20:48:52.124Z,83.10
2023-12-30T20:51:19.217Z,178.90
2023-12-30T20:53:46.159Z,81.70
2023-12-30T20:56:12.924Z,82.70
2023-12-30T20:58:39.902Z,115.80
2023-12-30T21:01:06.914Z,100.70
2023-12-30T21:03:33.830Z,76.20
2023-12-30T21:06:00.680Z,61.70
2023-12-30T21:08:27.579Z,70.40
2023-12-30T21:10:54.356Z,78.60
2023-12-30T21:13:21.324Z,77.40
2023-12-30T21:15:48.029Z,73.90
2023-12-30T21:18:14.922Z,74.40
2023-12-30T21:20:41.870Z,73.50
2023-12-30T21:23:08.581Z,77.90
2023-12-30T21:25:35.875Z,72.90
2023-12-30T21:28:05.399Z,81.50
2023-12-30T21:30:32.129Z,77.30
2023-12-30T21:32:58.889Z,87.60
2023-12-30T21:35:25.598Z,77.60
2023-12-30T21:37:52.261Z,84.70
2023-12-30T21:40:22.053Z,85.40
2023-12-30T21:42:54.978Z,87.30
2023-12-30T21:45:21.699Z,90.10
2023-12-30T21:47:48.395Z,76.40
2023-12-30T21:50:15.307Z,85.20
2023-12-30T21:52:42.286Z,85.00
2023-12-30T21:55:09.346Z,83.90
2023-12-30T21:57:36.268Z,92.20
2023-12-30T22:00:03.224Z,96.00
2023-12-30T22:02:30.010Z,95.60
2023-12-30T22:04:57.122Z,95.40
2023-12-30T22:07:23.884Z,107.10
2023-12-30T22:09:50.856Z,103.10
2023-12-30T22:12:17.576Z,110.30
2023-12-30T22:14:44.318Z,112.00
2023-12-30T22:17:11.546Z,108.10
2023-12-30T22:19:38.566Z,103.70
2023-12-30T22:22:05.618Z,99.90
2023-12-30T22:24:32.430Z,101.80
2023-12-30T22:26:59.079Z,103.90
2023-12-30T22:29:25.730Z,96.00
2023-12-30T22:31:52.369Z,98.00
2023-12-30T22:34:19.150Z,103.00
2023-12-30T22:36:46.394Z,318.10
2023-12-30T22:39:13.130Z,275.50
2023-12-30T22:41:39.711Z,210.10
2023-12-30T22:44:06.429Z,190.00
2023-12-30T22:46:33.115Z,151.80
2023-12-30T22:48:59.859Z,104.40
2023-12-30T22:51:26.622Z,157.60
2023-12-30T22:53:53.315Z,175.70
2023-12-30T22:56:20.156Z,118.40
2023-12-30T22:58:46.888Z,128.70
2023-12-30T23:01:13.955Z,143.00
2023-12-30T23:03:40.863Z,134.40
2023-12-30T23:06:07.516Z,149.70
2023-12-30T23:08:34.229Z,158.80
2023-12-30T23:11:01.154Z,157.10
2023-12-30T23:13:27.856Z,147.70
2023-12-30T23:15:54.778Z,105.00
2023-12-30T23:18:21.585Z,223.30
2023-12-30T23:20:48.382Z,138.50
2023-12-30T23:23:15.033Z,159.00
2023-12-30T23:25:41.969Z,168.60
2023-12-30T23:28:08.753Z,181.70
2023-12-30T23:30:35.402Z,157.00
2023-12-30T23:33:02.798Z,134.90
2023-12-30T23:35:29.871Z,136.50
2023-12-30T23:37:56.538Z,145.40
2023-12-30T23:40:23.461Z,169.70
2023-12-30T23:42:50.438Z,133.00
2023-12-30T23:45:17.080Z,95.90
2023-12-30T23:47:44.390Z,97.90
2023-12-30T23:50:12.274Z,108.00
2023-12-30T23:52:39.158Z,98.40
2023-12-30T23:55:07.806Z,89.40
2023-12-30T23:57:34.542Z,91.30
